Terminal Aerodrome Forecast
Issued by NWS

Current Version | Previous Version | Graphics & Text | Print | Product List | Glossary On
Versions: 1 2 3 4 5 6 7 8 9 10 11 12 13 14 15 16 17 18 19
000
FTUS41 KILN 220500
TAFLUK
TAF
KLUK 220528Z 2206/2306 26004KT P6SM OVC060
     FM221100 26006KT P6SM VCSH BKN030 OVC060
     FM221300 30011KT P6SM SCT035
     FM221500 32014G22KT P6SM SKC
     FM230000 34008KT P6SM SKC=

USA.gov is the U.S. government's official web portal to all federal, state and local government web resources and services.